createdAt,value
2022-12-04T00:01:20.877Z,17.90
2022-12-04T00:03:49.064Z,18.65
2022-12-04T00:06:18.711Z,17.55
2022-12-04T00:08:48.615Z,16.67
2022-12-04T00:11:18.896Z,17.45
2022-12-04T00:13:46.912Z,17.33
2022-12-04T00:16:19.974Z,18.42
2022-12-04T00:18:48.358Z,17.77
2022-12-04T00:21:17.351Z,18.33
2022-12-04T00:23:45.994Z,17.85
2022-12-04T00:26:16.516Z,17.73
2022-12-04T00:28:45.367Z,18.10
2022-12-04T00:31:15.686Z,18.38
2022-12-04T00:33:45.052Z,18.42
2022-12-04T00:36:14.790Z,18.77
2022-12-04T00:38:44.106Z,17.58
2022-12-04T00:41:13.228Z,18.83
2022-12-04T00:43:41.620Z,19.55
2022-12-04T00:46:10.273Z,18.45
2022-12-04T00:48:38.717Z,19.33
2022-12-04T00:51:09.983Z,18.13
2022-12-04T00:53:38.483Z,19.73
2022-12-04T00:56:07.342Z,18.52
2022-12-04T00:58:35.318Z,19.30
2022-12-04T01:01:05.208Z,20.10
2022-12-04T01:03:33.356Z,19.80
2022-12-04T01:06:01.735Z,18.92
2022-12-04T01:08:31.092Z,19.27
2022-12-04T01:10:59.217Z,20.00
2022-12-04T01:13:27.943Z,20.63
2022-12-04T01:15:55.841Z,21.95
2022-12-04T01:18:23.742Z,19.75
2022-12-04T01:20:52.881Z,20.77
2022-12-04T01:23:21.049Z,21.65
2022-12-04T01:25:55.264Z,21.63
2022-12-04T01:28:24.022Z,20.65
2022-12-04T01:31:02.919Z,21.08
2022-12-04T01:33:31.751Z,21.35
2022-12-04T01:36:01.153Z,23.75
2022-12-04T01:38:29.907Z,20.23
2022-12-04T01:40:59.842Z,21.42
2022-12-04T01:43:30.723Z,21.17
2022-12-04T01:45:59.635Z,21.70
2022-12-04T01:48:31.018Z,21.38
2022-12-04T01:51:06.512Z,20.83
2022-12-04T01:53:36.246Z,22.20
2022-12-04T01:56:06.940Z,21.65
2022-12-04T01:58:38.593Z,21.73
2022-12-04T02:01:09.128Z,21.05
2022-12-04T02:03:38.292Z,21.48
2022-12-04T02:06:06.997Z,20.38
2022-12-04T02:08:37.015Z,21.05
2022-12-04T02:11:17.183Z,21.58
2022-12-04T02:13:57.451Z,21.35
2022-12-04T02:16:34.328Z,21.63
2022-12-04T02:19:20.007Z,20.50
2022-12-04T02:21:50.535Z,20.90
2022-12-04T02:24:48.285Z,20.13
2022-12-04T02:27:32.611Z,21.42
2022-12-04T02:30:05.578Z,22.20
2022-12-04T02:32:39.596Z,20.30
2022-12-04T02:35:13.625Z,21.05
2022-12-04T02:37:46.760Z,22.60
2022-12-04T02:40:22.786Z,20.90
2022-12-04T02:42:57.904Z,21.05
2022-12-04T02:45:32.203Z,22.05
2022-12-04T02:48:02.301Z,22.50
2022-12-04T02:50:33.599Z,21.33
2022-12-04T02:53:06.418Z,22.52
2022-12-04T02:55:39.560Z,22.52
2022-12-04T02:58:14.134Z,22.23
2022-12-04T03:00:46.628Z,21.27
2022-12-04T03:03:19.580Z,24.33
2022-12-04T03:05:54.591Z,23.75
2022-12-04T03:08:27.252Z,24.58
2022-12-04T03:10:57.921Z,25.83
2022-12-04T03:13:31.870Z,25.73
2022-12-04T03:16:05.070Z,25.98
2022-12-04T03:18:37.342Z,26.00
2022-12-04T03:21:09.845Z,25.23
2022-12-04T03:23:45.346Z,27.58
2022-12-04T03:26:20.106Z,27.35
2022-12-04T03:28:54.045Z,27.83
2022-12-04T03:31:31.163Z,27.15
2022-12-04T03:34:03.940Z,26.80
2022-12-04T03:36:37.213Z,27.25
2022-12-04T03:39:12.854Z,27.58
2022-12-04T03:41:54.730Z,26.42
2022-12-04T03:44:28.369Z,26.80
2022-12-04T03:47:05.563Z,27.27
2022-12-04T03:49:44.795Z,29.40
2022-12-04T03:52:19.998Z,28.40
2022-12-04T03:54:52.486Z,29.40
2022-12-04T03:57:24.405Z,26.50
2022-12-04T04:00:00.170Z,27.23
2022-12-04T04:02:35.727Z,27.92
2022-12-04T04:05:08.062Z,28.10
2022-12-04T04:07:42.547Z,26.35
2022-12-04T04:10:15.003Z,27.42
2022-12-04T04:13:08.484Z,28.98
2022-12-04T04:15:58.250Z,26.77
2022-12-04T04:18:47.229Z,28.55
2022-12-04T04:21:37.080Z,29.67
2022-12-04T04:24:15.716Z,29.23
2022-12-04T04:26:47.479Z,27.65
2022-12-04T04:29:15.497Z,27.42
2022-12-04T04:31:47.641Z,28.60
2022-12-04T04:34:21.619Z,28.02
2022-12-04T04:36:56.493Z,28.25
2022-12-04T04:39:33.936Z,30.33
2022-12-04T04:42:05.917Z,28.35
2022-12-04T04:44:40.968Z,29.27
2022-12-04T04:47:15.811Z,29.10
2022-12-04T04:49:48.511Z,30.10
2022-12-04T04:52:18.531Z,28.75
2022-12-04T04:54:48.154Z,28.27
2022-12-04T04:57:27.805Z,30.27
2022-12-04T04:59:56.944Z,30.48
2022-12-04T05:02:27.439Z,27.10
2022-12-04T05:04:57.498Z,28.88
2022-12-04T05:07:25.940Z,29.30
2022-12-04T05:09:55.055Z,29.15
2022-12-04T05:12:23.630Z,27.40
2022-12-04T05:14:52.092Z,28.40
2022-12-04T05:17:20.490Z,30.10
2022-12-04T05:19:57.870Z,29.45
2022-12-04T05:22:31.687Z,29.65
2022-12-04T05:25:00.545Z,28.67
2022-12-04T05:27:30.457Z,29.08
2022-12-04T05:29:59.563Z,29.65
2022-12-04T05:32:28.984Z,28.75
2022-12-04T05:34:58.163Z,27.10
2022-12-04T05:37:27.463Z,29.35
2022-12-04T05:39:55.699Z,26.73
2022-12-04T05:42:24.107Z,29.90
2022-12-04T05:44:52.040Z,29.15
2022-12-04T05:47:20.077Z,30.77
2022-12-04T05:49:47.918Z,28.33
2022-12-04T05:52:16.033Z,30.98
2022-12-04T05:54:45.367Z,29.08
2022-12-04T05:57:13.197Z,28.25
2022-12-04T05:59:41.010Z,28.63
2022-12-04T06:02:08.919Z,28.77
2022-12-04T06:04:38.960Z,26.85
2022-12-04T06:07:07.068Z,27.80
2022-12-04T06:09:34.987Z,29.70
2022-12-04T06:12:05.468Z,29.13
2022-12-04T06:14:39.111Z,28.48
2022-12-04T06:17:07.584Z,26.70
2022-12-04T06:19:35.428Z,28.00
2022-12-04T06:22:03.420Z,28.60
2022-12-04T06:24:31.306Z,28.48
2022-12-04T06:29:49.650Z,27.15
2022-12-04T06:32:21.491Z,28.80
2022-12-04T06:34:52.947Z,30.00
2022-12-04T06:37:21.255Z,28.80
2022-12-04T06:39:49.527Z,28.52
2022-12-04T06:42:17.721Z,29.23
2022-12-04T06:44:45.792Z,28.63
2022-12-04T06:47:15.388Z,26.83
2022-12-04T06:49:43.342Z,26.08
2022-12-04T06:52:11.291Z,28.25
2022-12-04T06:54:39.340Z,28.30
2022-12-04T06:57:07.305Z,28.42
2022-12-04T06:59:35.234Z,28.05
2022-12-04T07:02:03.127Z,28.80
2022-12-04T07:04:32.516Z,27.08
2022-12-04T07:07:00.509Z,28.15
2022-12-04T07:09:28.438Z,26.95
2022-12-04T07:11:56.238Z,26.90
2022-12-04T07:14:24.119Z,26.35
2022-12-04T07:16:52.050Z,27.92
2022-12-04T07:19:20.124Z,26.92
2022-12-04T07:21:49.541Z,28.55
2022-12-04T07:24:18.520Z,28.50
2022-12-04T07:26:47.047Z,29.02
2022-12-04T07:29:15.023Z,27.10
2022-12-04T07:31:44.439Z,26.83
2022-12-04T07:34:12.569Z,25.85
2022-12-04T07:36:41.312Z,28.52
2022-12-04T07:39:10.712Z,26.63
2022-12-04T07:41:38.855Z,28.98
2022-12-04T07:44:09.411Z,27.17
2022-12-04T07:46:37.551Z,27.70
2022-12-04T07:49:05.428Z,28.85
2022-12-04T07:51:33.354Z,27.40
2022-12-04T07:54:03.997Z,28.33
2022-12-04T07:56:34.686Z,26.13
2022-12-04T07:59:03.225Z,26.73
2022-12-04T08:01:31.443Z,25.25
2022-12-04T08:04:01.260Z,25.98
2022-12-04T08:06:30.679Z,26.13
2022-12-04T08:08:58.724Z,25.88
2022-12-04T08:11:28.706Z,28.48
2022-12-04T08:13:59.102Z,27.65
2022-12-04T08:16:29.139Z,26.98
2022-12-04T08:18:58.226Z,27.10
2022-12-04T08:21:28.106Z,25.30
2022-12-04T08:23:57.958Z,27.58
2022-12-04T08:26:28.187Z,27.05
2022-12-04T08:28:56.497Z,26.63
2022-12-04T08:31:27.723Z,27.27
2022-12-04T08:33:57.851Z,26.60
2022-12-04T08:36:27.120Z,25.40
2022-12-04T08:38:55.585Z,26.35
2022-12-04T08:41:26.111Z,27.13
2022-12-04T08:43:56.033Z,26.27
2022-12-04T08:46:27.257Z,26.40
2022-12-04T08:48:56.657Z,27.00
2022-12-04T08:51:26.617Z,26.50
2022-12-04T08:53:56.554Z,25.45
2022-12-04T08:56:25.537Z,24.92
2022-12-04T08:58:54.181Z,26.90
2022-12-04T09:01:22.287Z,26.05
2022-12-04T09:03:56.800Z,25.48
2022-12-04T09:06:25.276Z,25.63
2022-12-04T09:08:54.325Z,26.88
2022-12-04T09:11:24.514Z,25.48
2022-12-04T09:13:52.627Z,23.60
2022-12-04T09:16:24.195Z,25.60
2022-12-04T09:18:53.652Z,25.00
2022-12-04T09:21:23.232Z,24.67
2022-12-04T09:23:52.293Z,24.02
2022-12-04T09:26:24.380Z,24.42
2022-12-04T09:28:53.276Z,23.30
2022-12-04T09:31:22.297Z,25.02
2022-12-04T09:33:50.559Z,25.38
2022-12-04T09:36:19.868Z,25.08
2022-12-04T09:38:49.886Z,23.45
2022-12-04T09:41:34.782Z,22.10
2022-12-04T09:44:05.416Z,20.63
2022-12-04T09:46:37.649Z,22.38
2022-12-04T09:49:20.121Z,21.00
2022-12-04T09:51:54.266Z,20.55
2022-12-04T09:54:29.658Z,19.73
2022-12-04T09:57:03.439Z,20.17
2022-12-04T09:59:34.075Z,19.80
2022-12-04T10:02:23.312Z,18.65
2022-12-04T10:04:52.888Z,19.80
2022-12-04T10:07:31.114Z,18.48
2022-12-04T10:10:10.303Z,20.13
2022-12-04T10:12:51.853Z,19.02
2022-12-04T10:15:36.199Z,19.40
2022-12-04T10:18:34.765Z,19.52
2022-12-04T10:21:38.483Z,18.60
2022-12-04T10:24:24.098Z,16.80
2022-12-04T10:26:56.662Z,17.70
2022-12-04T10:29:31.365Z,17.23
2022-12-04T10:32:13.759Z,18.50
2022-12-04T10:34:45.601Z,18.25
2022-12-04T10:37:15.798Z,15.98
2022-12-04T10:39:51.761Z,18.05
2022-12-04T10:42:29.957Z,17.00
2022-12-04T10:44:58.406Z,16.60
2022-12-04T10:47:26.610Z,17.95
2022-12-04T10:50:01.030Z,16.48
2022-12-04T10:52:29.148Z,15.02
2022-12-04T10:55:00.136Z,15.02
2022-12-04T10:57:38.025Z,15.23
2022-12-04T11:00:25.223Z,15.02
2022-12-04T11:02:53.819Z,14.27
2022-12-04T11:05:28.128Z,13.25
2022-12-04T11:07:57.142Z,13.88
2022-12-04T11:10:34.345Z,14.07
2022-12-04T11:13:04.877Z,13.95
2022-12-04T11:15:36.445Z,14.95
2022-12-04T11:18:15.224Z,14.30
2022-12-04T11:20:50.749Z,14.60
2022-12-04T11:23:19.375Z,14.57
2022-12-04T11:25:50.827Z,14.90
2022-12-04T11:28:40.558Z,13.60
2022-12-04T11:31:11.822Z,13.77
2022-12-04T11:33:44.336Z,14.18
2022-12-04T11:36:22.042Z,13.95
2022-12-04T11:38:51.366Z,15.27
2022-12-04T11:41:28.171Z,13.95
2022-12-04T11:43:59.967Z,14.82
2022-12-04T11:46:30.571Z,15.38
2022-12-04T11:48:59.129Z,14.13
2022-12-04T11:51:47.499Z,15.23
2022-12-04T11:54:25.871Z,14.55
2022-12-04T11:57:08.612Z,15.27
2022-12-04T11:59:49.780Z,14.88
2022-12-04T12:02:35.265Z,14.98
2022-12-04T12:05:45.157Z,16.58
2022-12-04T12:08:30.168Z,15.13
2022-12-04T12:11:07.196Z,15.13
2022-12-04T12:13:49.282Z,14.77
2022-12-04T12:16:26.445Z,14.27
2022-12-04T12:19:12.743Z,15.88
2022-12-04T12:21:54.044Z,15.57
2022-12-04T12:24:28.033Z,15.48
2022-12-04T12:27:08.137Z,17.73
2022-12-04T12:30:01.781Z,15.15
2022-12-04T12:32:52.371Z,17.75
2022-12-04T12:35:26.046Z,16.17
2022-12-04T12:37:58.269Z,17.52
2022-12-04T12:40:34.417Z,14.93
2022-12-04T12:43:08.392Z,15.27
2022-12-04T12:45:46.551Z,17.10
2022-12-04T12:48:27.498Z,16.50
2022-12-04T12:53:53.677Z,17.27
2022-12-04T12:56:31.046Z,17.60
2022-12-04T12:59:04.819Z,16.50
2022-12-04T13:01:44.441Z,16.23
2022-12-04T13:04:19.391Z,16.88
2022-12-04T13:06:52.593Z,17.63
2022-12-04T13:09:26.233Z,17.63
2022-12-04T13:12:04.331Z,16.67
2022-12-04T13:14:32.230Z,17.70
2022-12-04T13:17:06.886Z,17.52
2022-12-04T13:19:43.470Z,19.27
2022-12-04T13:22:20.116Z,18.33
2022-12-04T13:25:05.194Z,17.25
2022-12-04T13:27:46.401Z,17.45
2022-12-04T13:30:20.162Z,18.75
2022-12-04T13:33:29.096Z,17.27
2022-12-04T13:36:28.325Z,16.83
2022-12-04T13:39:18.299Z,18.20
2022-12-04T13:41:46.567Z,16.27
2022-12-04T13:44:22.069Z,16.45
2022-12-04T13:46:55.697Z,16.45
2022-12-04T13:49:28.497Z,17.23
2022-12-04T13:51:58.981Z,18.33
2022-12-04T13:54:30.542Z,17.65
2022-12-04T13:57:10.954Z,19.27
2022-12-04T13:59:40.532Z,16.70
2022-12-04T14:02:26.076Z,18.95
2022-12-04T14:04:58.560Z,18.23
2022-12-04T14:07:31.464Z,17.42
2022-12-04T14:10:04.776Z,17.58
2022-12-04T14:12:37.712Z,18.80
2022-12-04T14:15:09.570Z,19.10
2022-12-04T14:17:40.848Z,17.42
2022-12-04T14:20:25.683Z,19.95
2022-12-04T14:22:53.803Z,19.45
2022-12-04T14:25:35.771Z,19.33
2022-12-04T14:28:23.772Z,20.48
2022-12-04T14:31:04.707Z,20.52
2022-12-04T14:33:37.000Z,20.25
2022-12-04T14:36:10.708Z,21.17
2022-12-04T14:38:39.795Z,20.27
2022-12-04T14:41:08.463Z,16.80
2022-12-04T14:43:40.386Z,14.68
2022-12-04T14:46:16.551Z,13.93
2022-12-04T14:48:54.684Z,14.48
2022-12-04T14:51:32.336Z,14.30
2022-12-04T14:54:07.110Z,14.93
2022-12-04T14:56:47.757Z,15.45
2022-12-04T14:59:19.251Z,16.25
2022-12-04T15:01:49.545Z,16.48
2022-12-04T15:04:24.659Z,18.02
2022-12-04T15:06:59.926Z,18.65
2022-12-04T15:09:47.060Z,16.20
2022-12-04T15:12:37.125Z,20.58
2022-12-04T15:15:19.439Z,17.45
2022-12-04T15:18:01.189Z,19.48
2022-12-04T15:20:36.088Z,18.77
2022-12-04T15:23:12.866Z,20.50
2022-12-04T15:25:45.502Z,18.70
2022-12-04T15:28:17.970Z,19.10
2022-12-04T15:30:47.288Z,18.75
2022-12-04T15:33:21.756Z,20.23
2022-12-04T15:35:53.752Z,19.55
2022-12-04T15:38:23.645Z,20.08
2022-12-04T15:40:54.299Z,20.45
2022-12-04T15:43:29.707Z,19.50
2022-12-04T15:45:58.494Z,19.92
2022-12-04T15:48:33.234Z,19.98
2022-12-04T15:51:05.031Z,24.20
2022-12-04T15:53:37.794Z,20.85
2022-12-04T15:56:08.478Z,22.02
2022-12-04T15:58:39.088Z,21.90
2022-12-04T16:01:08.966Z,21.50
2022-12-04T16:03:45.222Z,23.73
2022-12-04T16:06:18.148Z,24.48
2022-12-04T16:08:49.904Z,21.45
2022-12-04T16:11:33.796Z,22.85
2022-12-04T16:14:15.860Z,21.25
2022-12-04T16:16:46.215Z,24.40
2022-12-04T16:19:18.990Z,23.58
2022-12-04T16:21:47.169Z,23.77
2022-12-04T16:24:16.772Z,22.80
2022-12-04T16:26:44.661Z,23.65
2022-12-04T16:29:12.609Z,22.65
2022-12-04T16:31:40.693Z,23.50
2022-12-04T16:34:10.037Z,23.88
2022-12-04T16:36:38.176Z,23.58
2022-12-04T16:39:06.108Z,21.95
2022-12-04T16:41:35.572Z,23.55
2022-12-04T16:44:03.796Z,24.60
2022-12-04T16:46:31.719Z,21.40
2022-12-04T16:49:05.816Z,22.98
2022-12-04T16:51:37.392Z,22.58
2022-12-04T16:54:05.686Z,22.75
2022-12-04T16:56:35.167Z,22.65
2022-12-04T16:59:05.567Z,23.00
2022-12-04T17:01:41.878Z,21.98
2022-12-04T17:04:11.281Z,23.00
2022-12-04T17:06:39.224Z,21.75
2022-12-04T17:09:08.043Z,23.05
2022-12-04T17:11:38.074Z,23.15
2022-12-04T17:14:07.927Z,21.42
2022-12-04T17:16:36.661Z,22.45
2022-12-04T17:19:05.251Z,21.20
2022-12-04T17:21:34.255Z,21.08
2022-12-04T17:24:02.968Z,21.67
2022-12-04T17:26:31.474Z,22.67
2022-12-04T17:29:02.121Z,22.27
2022-12-04T17:31:31.804Z,23.02
2022-12-04T17:34:00.087Z,21.60
2022-12-04T17:36:28.478Z,22.88
2022-12-04T17:38:58.237Z,21.65
2022-12-04T17:41:26.525Z,22.33
2022-12-04T17:43:54.691Z,20.40
2022-12-04T17:46:24.476Z,20.92
2022-12-04T17:48:53.062Z,22.05
2022-12-04T17:51:22.782Z,21.73
2022-12-04T17:53:50.856Z,20.98
2022-12-04T17:56:21.889Z,20.63
2022-12-04T17:58:50.359Z,21.10
2022-12-04T18:01:21.509Z,20.20
2022-12-04T18:03:52.863Z,20.15
2022-12-04T18:06:22.874Z,20.73
2022-12-04T18:08:51.237Z,19.23
2022-12-04T18:11:29.886Z,19.00
2022-12-04T18:14:01.378Z,19.27
2022-12-04T18:16:43.291Z,19.50
2022-12-04T18:19:12.725Z,18.58
2022-12-04T18:21:40.667Z,19.60
2022-12-04T18:24:08.866Z,19.77
2022-12-04T18:26:41.457Z,19.67
2022-12-04T18:29:11.805Z,21.37
2022-12-04T18:31:39.881Z,18.98
2022-12-04T18:34:09.091Z,19.67
2022-12-04T18:36:40.442Z,19.25
2022-12-04T18:39:12.659Z,19.95
2022-12-04T18:41:40.739Z,18.90
2022-12-04T18:44:09.068Z,19.77
2022-12-04T18:46:37.189Z,19.35
2022-12-04T18:49:05.490Z,20.83
2022-12-04T18:51:39.651Z,20.85
2022-12-04T18:54:09.395Z,20.58
2022-12-04T18:56:37.787Z,20.75
2022-12-04T18:59:08.036Z,19.08
2022-12-04T19:01:36.218Z,18.80
2022-12-04T19:04:07.718Z,19.83
2022-12-04T19:06:37.769Z,19.85
2022-12-04T19:09:09.572Z,20.17
2022-12-04T19:11:38.455Z,21.55
2022-12-04T19:14:17.527Z,20.85
2022-12-04T19:16:52.069Z,21.10
2022-12-04T19:19:20.009Z,20.20
2022-12-04T19:21:48.015Z,21.63
2022-12-04T19:24:18.058Z,21.70
2022-12-04T19:26:47.641Z,22.08
2022-12-04T19:29:16.109Z,21.05
2022-12-04T19:31:44.349Z,20.90
2022-12-04T19:34:12.263Z,21.35
2022-12-04T19:36:41.123Z,21.63
2022-12-04T19:39:09.183Z,21.90
2022-12-04T19:41:40.972Z,20.75
2022-12-04T19:44:40.238Z,22.42
2022-12-04T19:46:58.879Z,20.85
2022-12-04T19:49:26.851Z,21.88
2022-12-04T19:51:54.769Z,21.52
2022-12-04T19:54:23.815Z,23.38
2022-12-04T19:56:53.272Z,20.67
2022-12-04T19:59:21.368Z,20.67
2022-12-04T20:01:49.340Z,21.88
2022-12-04T20:04:17.658Z,22.20
2022-12-04T20:06:47.438Z,20.85
2022-12-04T20:09:20.135Z,22.73
2022-12-04T20:11:48.278Z,22.23
2022-12-04T20:14:18.027Z,21.35
2022-12-04T20:16:46.727Z,21.48
2022-12-04T20:19:16.464Z,21.10
2022-12-04T20:21:45.004Z,21.50
2022-12-04T20:24:15.470Z,20.48
2022-12-04T20:26:45.183Z,21.33
2022-12-04T20:29:18.711Z,20.55
2022-12-04T20:34:18.245Z,19.88
2022-12-04T20:36:47.428Z,21.33
2022-12-04T20:39:16.859Z,22.52
2022-12-04T20:41:44.921Z,19.70
2022-12-04T20:44:15.240Z,21.90
2022-12-04T20:46:43.797Z,20.20
2022-12-04T20:49:20.736Z,21.58
2022-12-04T20:51:50.091Z,20.58
2022-12-04T20:54:20.119Z,19.83
2022-12-04T20:56:49.171Z,21.77
2022-12-04T20:59:18.591Z,21.27
2022-12-04T21:01:47.226Z,21.38
2022-12-04T21:04:17.802Z,20.50
2022-12-04T21:06:46.550Z,21.17
2022-12-04T21:09:16.395Z,22.17
2022-12-04T21:11:45.924Z,20.55
2022-12-04T21:14:33.137Z,20.48
2022-12-04T21:17:02.363Z,22.60
2022-12-04T21:19:32.211Z,21.77
2022-12-04T21:22:00.720Z,21.58
2022-12-04T21:24:30.315Z,22.80
2022-12-04T21:26:58.268Z,21.63
2022-12-04T21:29:31.364Z,20.67
2022-12-04T21:31:59.672Z,22.70
2022-12-04T21:34:27.575Z,21.88
2022-12-04T21:36:56.774Z,21.10
2022-12-04T21:39:25.259Z,21.60
2022-12-04T21:42:11.162Z,19.98
2022-12-04T21:44:39.386Z,21.48
2022-12-04T21:47:07.376Z,21.77
2022-12-04T21:49:35.187Z,20.60
2022-12-04T21:52:04.669Z,21.70
2022-12-04T21:54:32.531Z,23.15
2022-12-04T21:57:00.514Z,21.70
2022-12-04T21:59:28.559Z,19.77
2022-12-04T22:01:58.370Z,22.45
2022-12-04T22:04:30.881Z,21.70
2022-12-04T22:07:02.098Z,21.35
2022-12-04T22:09:31.476Z,21.55
2022-12-04T22:11:59.275Z,21.92
2022-12-04T22:14:27.911Z,21.35
2022-12-04T22:16:55.905Z,19.77
2022-12-04T22:19:23.791Z,22.55
2022-12-04T22:22:18.730Z,22.77
2022-12-04T22:24:49.888Z,22.02
2022-12-04T22:27:17.815Z,20.40
2022-12-04T22:29:50.578Z,21.42
2022-12-04T22:32:19.268Z,21.08
2022-12-04T22:34:48.625Z,20.85
2022-12-04T22:37:33.762Z,19.30
2022-12-04T22:40:22.436Z,20.55
2022-12-04T22:42:50.295Z,21.90
2022-12-04T22:45:20.006Z,20.08
2022-12-04T22:47:47.800Z,20.40
2022-12-04T22:50:15.679Z,19.80
2022-12-04T22:52:43.625Z,19.20
2022-12-04T22:55:12.844Z,19.35
2022-12-04T22:57:41.494Z,18.33
2022-12-04T23:00:10.484Z,19.55
2022-12-04T23:02:38.470Z,19.23
2022-12-04T23:05:06.562Z,20.65
2022-12-04T23:07:34.565Z,18.98
2022-12-04T23:10:02.551Z,20.55
2022-12-04T23:12:31.893Z,19.10
2022-12-04T23:14:59.800Z,18.50
2022-12-04T23:17:27.769Z,19.17
2022-12-04T23:19:56.121Z,18.58
2022-12-04T23:22:24.132Z,19.40
2022-12-04T23:24:51.916Z,18.70
2022-12-04T23:27:19.711Z,18.73
2022-12-04T23:29:53.470Z,20.00
2022-12-04T23:32:21.746Z,18.65
2022-12-04T23:34:49.732Z,18.23
2022-12-04T23:37:17.999Z,18.98
2022-12-04T23:39:45.795Z,18.80
2022-12-04T23:42:13.632Z,18.70
2022-12-04T23:44:41.524Z,18.70
2022-12-04T23:47:10.768Z,17.95
2022-12-04T23:49:38.701Z,18.40
2022-12-04T23:52:06.563Z,19.05
2022-12-04T23:54:35.868Z,18.40
2022-12-04T23:57:03.923Z,18.33
2022-12-04T23:59:31.859Z,18.13
